Yokosuka — JCOY — position and weather

sailwx.info

Track history (hours):
 
Tides and Currents Weather Stations Pressure Air Temp Water Temp Dewpoint Dewpoint Depression Visibility Wind Speed Wind Dir Waves Ship Positions

Oceanographic research ship Yokosuka (Japan)

Detailed information on ship capabilities available from University of Delaware's Ocean Information Center.

Last reported at 2017-Jun-26 01:29 UTC. Time now 2017-Jun-26 19:08 UTC.
Position N 35°04' E 139°44'.

Length 105.2 m; beam 16 m.

Type: Other ship. MMSI: 431460000.

Date/timePositionNaut miles runAvg speedWind from/ knotsBaromVisibWave heightAir tempDewpointWater temp
2017-Jun-26 01:29N 35°04' E 139°44'815.8
2017-Jun-26 01:00N 35°12' E 139°46'612.8
2017-Jun-26 00:30N 35°18' E 139°44'4 1.9
2017-Jun-25 22:19N 35°19' E 139°39'0 0.0
2017-Jun-25 21:55N 35°19' E 139°39'0 0.0
2017-Jun-25 21:19N 35°19' E 139°39'0 0.0
2017-Jun-25 20:55N 35°19' E 139°39'0 0.0
2017-Jun-25 11:25N 35°19' E 139°39'0 0.0
2017-Jun-25 10:55N 35°19' E 139°39'0 0.0
2017-Jun-25 05:49N 35°19' E 139°39'0 0.0
2017-Jun-25 02:28N 35°19' E 139°39'0 0.0
2017-Jun-24 20:49N 35°19' E 139°39'0 0.0
2017-Jun-24 20:25N 35°19' E 139°39'0 0.0
2017-Jun-24 19:55N 35°19' E 139°39'0 0.0
2017-Jun-24 02:28N 35°19' E 139°39'0 0.0
2017-Jun-24 01:22N 35°19' E 139°39'0 0.0
2017-Jun-23 05:07N 35°19' E 139°39'0 0.0
2017-Jun-23 00:31N 35°19' E 139°39'0 0.0
2017-Jun-22 23:07N 35°19' E 139°39'0 0.0
2017-Jun-22 12:43N 35°19' E 139°39'0 0.0
2017-Jun-22 09:37N 35°19' E 139°39'0 0.0
2017-Jun-21 23:16N 35°19' E 139°39'0 0.0
2017-Jun-21 22:52N 35°19' E 139°39'0 0.0
2017-Jun-21 21:28N 35°19' E 139°39'0 0.0
2017-Jun-21 18:25N 35°19' E 139°39'0 0.0
2017-Jun-21 17:19N 35°19' E 139°39'0 0.0
2017-Jun-19 23:55N 35°19' E 139°39'0 1.0
2017-Jun-19 23:30N 35°19' E 139°39'2 4.1
2017-Jun-19 23:00N 35°19' E 139°42'0 0.9
2017-Jun-19 22:30N 35°19' E 139°43'5 9.1
2017-Jun-19 22:00N 35°15' E 139°47'612.2
2017-Jun-19 21:30N 35°09' E 139°46'9 6.7
2017-Jun-19 20:13N 35°01' E 139°47'0 0.0
2017-Jun-19 13:21N 35°01' E 139°47'1 0.2
2017-Jun-19 10:01N 35°00' E 139°48'  
2017-Jun-17 01:48N 35°06' E 139°33'817.2
2017-Jun-17 01:21N 35°06' E 139°43'515.2
2017-Jun-17 01:00N 35°11' E 139°46'612.6
2017-Jun-17 00:30N 35°17' E 139°44'5 9.4
2017-Jun-17 00:00N 35°19' E 139°39'0 0.1
2017-Jun-16 23:26N 35°19' E 139°39'0 0.0
2017-Jun-16 22:38N 35°19' E 139°39'0 0.0
2017-Jun-16 22:26N 35°19' E 139°39'0 0.0
2017-Jun-16 21:50N 35°19' E 139°39'0 0.0
2017-Jun-16 21:20N 35°19' E 139°39'0 0.0
2017-Jun-16 20:59N 35°19' E 139°39'0 0.0
2017-Jun-16 20:26N 35°19' E 139°39'0 0.0
2017-Jun-16 19:50N 35°19' E 139°39'0 0.0
2017-Jun-16 19:26N 35°19' E 139°39'0 0.0
2017-Jun-16 18:59N 35°19' E 139°39'0 0.0
2017-Jun-16 18:26N 35°19' E 139°39'0 0.0
2017-Jun-16 17:38N 35°19' E 139°39'0 0.0
2017-Jun-16 17:26N 35°19' E 139°39'0 0.0
2017-Jun-16 16:56N 35°19' E 139°39'0 0.0
2017-Jun-16 16:26N 35°19' E 139°39'0 0.0
2017-Jun-16 15:56N 35°19' E 139°39'0 0.0
2017-Jun-16 15:20N 35°19' E 139°39'0 0.0
2017-Jun-16 14:56N 35°19' E 139°39'0 0.0
2017-Jun-16 13:50N 35°19' E 139°39'0 0.0
2017-Jun-16 13:26N 35°19' E 139°39'0 0.0
2017-Jun-16 12:44N 35°19' E 139°39'0 0.0
2017-Jun-16 08:32N 35°19' E 139°39'0 0.0
2017-Jun-16 06:14N 35°19' E 139°39'0 0.0
2017-Jun-16 05:56N 35°19' E 139°39'0 0.0
2017-Jun-16 05:26N 35°19' E 139°39'0 0.0
2017-Jun-16 04:44N 35°19' E 139°39'0 0.0
2017-Jun-16 04:20N 35°19' E 139°39'0 0.0
2017-Jun-16 03:50N 35°19' E 139°39'0 0.0
2017-Jun-16 03:26N 35°19' E 139°39'0 0.0
2017-Jun-16 02:50N 35°19' E 139°39'0 0.0
2017-Jun-16 02:26N 35°19' E 139°39'0 0.0
2017-Jun-16 01:56N 35°19' E 139°39'  
Track history (hours):
 
Tides and Currents Weather Stations Pressure Air Temp Water Temp Dewpoint Dewpoint Depression Visibility Wind Speed Wind Dir Waves Ship Positions

Oceanographic research ship Yokosuka (Japan)

Detailed information on ship capabilities available from University of Delaware's Ocean Information Center.

Last reported at 2017-Jun-26 01:29 UTC. Time now 2017-Jun-26 19:08 UTC.
Position N 35°04' E 139°44'.

Length 105.2 m; beam 16 m.

Type: Other ship. MMSI: 431460000.

Date/timePositionNaut miles runAvg speedWind from/ knotsBaromVisibWave heightAir tempDewpointWater temp
2017-Jun-26 01:29N 35°04' E 139°44'815.8
2017-Jun-26 01:00N 35°12' E 139°46'612.8
2017-Jun-26 00:30N 35°18' E 139°44'4 1.9
2017-Jun-25 22:19N 35°19' E 139°39'0 0.0
2017-Jun-25 21:55N 35°19' E 139°39'0 0.0
2017-Jun-25 21:19N 35°19' E 139°39'0 0.0
2017-Jun-25 20:55N 35°19' E 139°39'0 0.0
2017-Jun-25 11:25N 35°19' E 139°39'0 0.0
2017-Jun-25 10:55N 35°19' E 139°39'0 0.0
2017-Jun-25 05:49N 35°19' E 139°39'0 0.0
2017-Jun-25 02:28N 35°19' E 139°39'0 0.0
2017-Jun-24 20:49N 35°19' E 139°39'0 0.0
2017-Jun-24 20:25N 35°19' E 139°39'0 0.0
2017-Jun-24 19:55N 35°19' E 139°39'0 0.0
2017-Jun-24 02:28N 35°19' E 139°39'0 0.0
2017-Jun-24 01:22N 35°19' E 139°39'0 0.0
2017-Jun-23 05:07N 35°19' E 139°39'0 0.0
2017-Jun-23 00:31N 35°19' E 139°39'0 0.0
2017-Jun-22 23:07N 35°19' E 139°39'0 0.0
2017-Jun-22 12:43N 35°19' E 139°39'0 0.0
2017-Jun-22 09:37N 35°19' E 139°39'0 0.0
2017-Jun-21 23:16N 35°19' E 139°39'0 0.0
2017-Jun-21 22:52N 35°19' E 139°39'0 0.0
2017-Jun-21 21:28N 35°19' E 139°39'0 0.0
2017-Jun-21 18:25N 35°19' E 139°39'0 0.0
2017-Jun-21 17:19N 35°19' E 139°39'0 0.0
2017-Jun-19 23:55N 35°19' E 139°39'0 1.0
2017-Jun-19 23:30N 35°19' E 139°39'2 4.1
2017-Jun-19 23:00N 35°19' E 139°42'0 0.9
2017-Jun-19 22:30N 35°19' E 139°43'5 9.1
2017-Jun-19 22:00N 35°15' E 139°47'612.2
2017-Jun-19 21:30N 35°09' E 139°46'9 6.7
2017-Jun-19 20:13N 35°01' E 139°47'0 0.0
2017-Jun-19 13:21N 35°01' E 139°47'1 0.2
2017-Jun-19 10:01N 35°00' E 139°48'  
2017-Jun-17 01:48N 35°06' E 139°33'817.2
2017-Jun-17 01:21N 35°06' E 139°43'515.2
2017-Jun-17 01:00N 35°11' E 139°46'612.6
2017-Jun-17 00:30N 35°17' E 139°44'5 9.4
2017-Jun-17 00:00N 35°19' E 139°39'0 0.1
2017-Jun-16 23:26N 35°19' E 139°39'0 0.0
2017-Jun-16 22:38N 35°19' E 139°39'0 0.0
2017-Jun-16 22:26N 35°19' E 139°39'0 0.0
2017-Jun-16 21:50N 35°19' E 139°39'0 0.0
2017-Jun-16 21:20N 35°19' E 139°39'0 0.0
2017-Jun-16 20:59N 35°19' E 139°39'0 0.0
2017-Jun-16 20:26N 35°19' E 139°39'0 0.0
2017-Jun-16 19:50N 35°19' E 139°39'0 0.0
2017-Jun-16 19:26N 35°19' E 139°39'0 0.0
2017-Jun-16 18:59N 35°19' E 139°39'0 0.0
2017-Jun-16 18:26N 35°19' E 139°39'0 0.0
2017-Jun-16 17:38N 35°19' E 139°39'0 0.0
2017-Jun-16 17:26N 35°19' E 139°39'0 0.0
2017-Jun-16 16:56N 35°19' E 139°39'0 0.0
2017-Jun-16 16:26N 35°19' E 139°39'0 0.0
2017-Jun-16 15:56N 35°19' E 139°39'0 0.0
2017-Jun-16 15:20N 35°19' E 139°39'0 0.0
2017-Jun-16 14:56N 35°19' E 139°39'0 0.0
2017-Jun-16 13:50N 35°19' E 139°39'0 0.0
2017-Jun-16 13:26N 35°19' E 139°39'0 0.0
2017-Jun-16 12:44N 35°19' E 139°39'0 0.0
2017-Jun-16 08:32N 35°19' E 139°39'0 0.0
2017-Jun-16 06:14N 35°19' E 139°39'0 0.0
2017-Jun-16 05:56N 35°19' E 139°39'0 0.0
2017-Jun-16 05:26N 35°19' E 139°39'0 0.0
2017-Jun-16 04:44N 35°19' E 139°39'0 0.0
2017-Jun-16 04:20N 35°19' E 139°39'0 0.0
2017-Jun-16 03:50N 35°19' E 139°39'0 0.0
2017-Jun-16 03:26N 35°19' E 139°39'0 0.0
2017-Jun-16 02:50N 35°19' E 139°39'0 0.0
2017-Jun-16 02:26N 35°19' E 139°39'0 0.0
2017-Jun-16 01:56N 35°19' E 139°39'  

Dump ship's entire track history